Time;durP1;ratioP1;P1;durP2;ratioP2;P2;SDS_P1;SDS_P2;PMS_P1;PMS_P2;Temp;Humidity;BMP_temperature;BMP_pressure;BME280_temperature;BME280_humidity;BME280_pressure;Samples;Min_cycle;Max_cycle;Signal;HPM_P1;HPM_P2
2022/08/06 00:00:53;;;;;;;;;;;;;;;;;;5029712;28;20293;-80
2022/08/06 00:03:25;;;;;;;;;;;;;;;;;;5000132;28;21089;-79
2022/08/06 00:05:57;;;;;;;;;;;;;;;;;;5001571;28;19923;-78
2022/08/06 00:08:26;;;;;;;;;;;;;;;;;;5027601;28;19929;-76
2022/08/06 00:10:52;;;;;;;;;;;;;;;;;;5046546;28;20023;-78
2022/08/06 00:13:18;;;;;;;;;;;;;;;;;;5033948;28;19992;-78
2022/08/06 00:15:52;;;;;;;;;;;;;;;;;;5027047;28;19921;-77
2022/08/06 00:18:26;;;;;;;;;;;;;;;;;;5003962;28;19947;-77
2022/08/06 00:21:01;;;;;;;;;;;;;;;;;;5023866;28;19920;-77
2022/08/06 00:23:36;;;;;;;;;;;;;;;;;;5009561;28;20071;-76
2022/08/06 00:26:05;;;;;;;;;;;;;;;;;;5004966;28;19924;-77
2022/08/06 00:28:34;;;;;;;;;;;;;;;;;;5028325;28;20228;-75
2022/08/06 00:31:00;;;;;;;;;;;;;;;;;;4994758;28;19944;-77
2022/08/06 00:33:35;;;;;;;;;;;;;;;;;;5009697;28;20011;-77
2022/08/06 00:36:01;;;;;;;;;;;;;;;;;;5045778;28;20292;-78
2022/08/06 00:38:27;;;;;;;;;;;;;;;;;;5007531;28;19945;-77
2022/08/06 00:41:01;;;;;;;;;;;;;;;;;;5015551;28;20327;-79
2022/08/06 00:43:45;;;;;;;;;;;;;;;;;;;;;
2022/08/06 00:49:00;;;;;;;;;;;;;;;;;;4994595;28;20069;-78
2022/08/06 00:51:59;;;;;;;;;;;;;;;;;;;;;
2022/08/06 00:54:49;;;;;;;;;;;;;;;;;;5015212;28;20023;-78
2022/08/06 00:57:35;;;;;;;;;;;;;;;;;;4914247;28;19921;-76
2022/08/06 01:00:41;;;;;;;;;;;;;;;;;;;;;
2022/08/06 01:03:33;;;;;;;;;;;;;;;;;;4951064;28;19921;-78
2022/08/06 01:05:59;;;;;;;;;;;;;;;;;;5011513;28;19917;-76
2022/08/06 01:08:26;;;;;;;;;;;;;;;;;;5046585;28;19977;-77
2022/08/06 01:10:52;;;;;;;;;;;;;;;;;;5046855;28;19948;-77
2022/08/06 01:13:18;;;;;;;;;;;;;;;;;;5044166;28;19967;-77
2022/08/06 01:15:44;;;;;;;;;;;;;;;;;;5043785;28;19960;-77
2022/08/06 01:18:10;;;;;;;;;;;;;;;;;;5045366;28;20025;-77
2022/08/06 01:20:36;;;;;;;;;;;;;;;;;;5023548;28;20483;-77
2022/08/06 01:23:03;;;;;;;;;;;;;;;;;;5045577;28;20012;-77
2022/08/06 01:25:29;;;;;;;;;;;;;;;;;;5046516;28;20327;-76
2022/08/06 01:27:55;;;;;;;;;;;;;;;;;;5043274;28;20332;-76
2022/08/06 01:30:21;;;;;;;;;;;;;;;;;;5030106;28;19990;-76
2022/08/06 01:32:47;;;;;;;;;;;;;;;;;;5044711;28;20043;-76
2022/08/06 01:35:14;;;;;;;;;;;;;;;;;;5049029;28;19969;-77
2022/08/06 01:37:40;;;;;;;;;;;;;;;;;;5048489;28;19955;-76
2022/08/06 01:40:06;;;;;;;;;;;;;;;;;;5046803;28;19952;-78
2022/08/06 01:42:32;;;;;;;;;;;;;;;;;;5033416;28;19949;-78
2022/08/06 01:45:00;;;;;;;;;;;;;;;;;;5034257;28;20387;-78
2022/08/06 01:47:27;;;;;;;;;;;;;;;;;;5046707;28;19965;-78
2022/08/06 01:49:53;;;;;;;;;;;;;;;;;;5045313;28;19960;-76
2022/08/06 01:52:19;;;;;;;;;;;;;;;;;;5047736;28;20342;-77
2022/08/06 01:54:45;;;;;;;;;;;;;;;;;;5047871;28;19971;-76
2022/08/06 01:57:11;;;;;;;;;;;;;;;;;;5047461;28;19960;-77
2022/08/06 01:59:37;;;;;;;;;;;;;;;;;;5028768;28;19972;-77
2022/08/06 02:02:04;;;;;;;;;;;;;;;;;;5042548;28;19917;-77
2022/08/06 02:04:30;;;;;;;;;;;;;;;;;;5043062;28;20357;-78
2022/08/06 02:06:56;;;;;;;;;;;;;;;;;;5041877;28;19951;-78
2022/08/06 02:09:22;;;;;;;;;;;;;;;;;;5027766;28;20018;-77
2022/08/06 02:11:48;;;;;;;;;;;;;;;;;;5039689;28;20400;-77
2022/08/06 02:14:15;;;;;;;;;;;;;;;;;;5037790;28;19960;-78
2022/08/06 02:16:41;;;;;;;;;;;;;;;;;;5045461;28;19963;-79
2022/08/06 02:19:07;;;;;;;;;;;;;;;;;;5046884;28;19959;-79
2022/08/06 02:21:33;;;;;;;;;;;;;;;;;;5043974;28;19963;-77
2022/08/06 02:23:59;;;;;;;;;;;;;;;;;;5043479;28;20386;-77
2022/08/06 02:26:25;;;;;;;;;;;;;;;;;;5046427;28;19940;-76
2022/08/06 02:28:52;;;;;;;;;;;;;;;;;;5040836;28;20627;-78
2022/08/06 02:31:18;;;;;;;;;;;;;;;;;;5042702;28;19959;-77
2022/08/06 02:33:44;;;;;;;;;;;;;;;;;;5039459;28;19956;-77
2022/08/06 02:36:10;;;;;;;;;;;;;;;;;;5046290;28;20396;-78
2022/08/06 02:38:36;;;;;;;;;;;;;;;;;;5043802;28;19986;-79
2022/08/06 02:41:03;;;;;;;;;;;;;;;;;;5045752;28;19948;-78
2022/08/06 02:43:29;;;;;;;;;;;;;;;;;;5044013;28;19956;-78
2022/08/06 02:45:55;;;;;;;;;;;;;;;;;;5042610;28;20014;-78
2022/08/06 02:48:21;;;;;;;;;;;;;;;;;;5041631;28;19998;-77
2022/08/06 02:50:47;;;;;;;;;;;;;;;;;;5047837;28;20365;-78
2022/08/06 02:53:13;;;;;;;;;;;;;;;;;;5044941;28;19960;-78
2022/08/06 02:55:49;;;;;;;;;;;;;;;;;;5034516;28;19979;-78
2022/08/06 02:58:18;;;;;;;;;;;;;;;;;;4992198;28;19967;-78
2022/08/06 03:00:44;;;;;;;;;;;;;;;;;;5009527;28;20350;-76
2022/08/06 03:03:13;;;;;;;;;;;;;;;;;;5011475;28;19918;-79
2022/08/06 03:06:01;;;;;;;;;;;;;;;;;;;;;
2022/08/06 03:08:28;;;;;;;;;;;;;;;;;;4987494;28;19960;-78
2022/08/06 03:10:57;;;;;;;;;;;;;;;;;;4987365;28;20368;-77
2022/08/06 03:13:23;;;;;;;;;;;;;;;;;;5029744;28;19951;-77
2022/08/06 03:15:49;;;;;;;;;;;;;;;;;;5038047;28;19960;-78
2022/08/06 03:18:15;;;;;;;;;;;;;;;;;;5036155;28;19972;-77
2022/08/06 03:20:41;;;;;;;;;;;;;;;;;;5046504;28;19948;-76
2022/08/06 03:23:08;;;;;;;;;;;;;;;;;;5025315;28;20010;-76
2022/08/06 03:25:34;;;;;;;;;;;;;;;;;;5046255;28;20010;-77
2022/08/06 03:28:01;;;;;;;;;;;;;;;;;;5039987;28;19940;-76
2022/08/06 03:30:27;;;;;;;;;;;;;;;;;;5041530;28;19960;-76
2022/08/06 03:32:53;;;;;;;;;;;;;;;;;;5026353;28;19925;-77
2022/08/06 03:35:20;;;;;;;;;;;;;;;;;;5046009;28;20399;-78
2022/08/06 03:37:46;;;;;;;;;;;;;;;;;;5042556;28;20039;-78
2022/08/06 03:40:12;;;;;;;;;;;;;;;;;;5027281;28;19959;-78
2022/08/06 03:42:38;;;;;;;;;;;;;;;;;;5032817;28;19960;-78
2022/08/06 03:45:04;;;;;;;;;;;;;;;;;;5044323;28;19963;-77
2022/08/06 03:47:32;;;;;;;;;;;;;;;;;;5027987;28;19948;-78
2022/08/06 03:49:58;;;;;;;;;;;;;;;;;;5038671;28;20594;-77
2022/08/06 03:52:25;;;;;;;;;;;;;;;;;;5022026;28;19940;-79
2022/08/06 03:54:51;;;;;;;;;;;;;;;;;;5039430;28;19972;-79
2022/08/06 03:57:17;;;;;;;;;;;;;;;;;;5045807;28;19965;-79
2022/08/06 03:59:43;;;;;;;;;;;;;;;;;;5046060;28;20148;-79
2022/08/06 04:02:09;;;;;;;;;;;;;;;;;;5043811;28;20352;-78
2022/08/06 04:04:35;;;;;;;;;;;;;;;;;;5041862;28;19952;-78
2022/08/06 04:07:02;;;;;;;;;;;;;;;;;;5021931;28;20396;-78
2022/08/06 04:09:28;;;;;;;;;;;;;;;;;;5040227;28;19963;-78
2022/08/06 04:11:54;;;;;;;;;;;;;;;;;;5035213;28;19956;-77
2022/08/06 04:14:20;;;;;;;;;;;;;;;;;;5045074;28;19968;-78
2022/08/06 04:16:47;;;;;;;;;;;;;;;;;;5045329;28;19974;-78
2022/08/06 04:19:13;;;;;;;;;;;;;;;;;;5026509;28;19987;-77
2022/08/06 04:21:40;;;;;;;;;;;;;;;;;;5043507;28;19948;-77
2022/08/06 04:24:06;;;;;;;;;;;;;;;;;;5034267;28;19948;-77
2022/08/06 04:26:32;;;;;;;;;;;;;;;;;;5045069;28;20344;-77
2022/08/06 04:28:58;;;;;;;;;;;;;;;;;;5035363;28;19967;-77
2022/08/06 04:31:24;;;;;;;;;;;;;;;;;;5044413;28;19958;-77
2022/08/06 04:33:50;;;;;;;;;;;;;;;;;;5038602;28;20002;-78
2022/08/06 04:36:17;;;;;;;;;;;;;;;;;;5043813;28;19968;-77
2022/08/06 04:38:43;;;;;;;;;;;;;;;;;;5035316;28;19967;-78
2022/08/06 04:41:09;;;;;;;;;;;;;;;;;;5038954;28;19956;-78
2022/08/06 04:43:38;;;;;;;;;;;;;;;;;;5046188;28;19917;-78
2022/08/06 04:46:04;;;;;;;;;;;;;;;;;;5038944;28;19960;-78
2022/08/06 04:48:30;;;;;;;;;;;;;;;;;;5039685;28;19952;-77
2022/08/06 04:50:56;;;;;;;;;;;;;;;;;;5044582;28;19963;-77
2022/08/06 04:53:23;;;;;;;;;;;;;;;;;;5027297;28;20266;-77
2022/08/06 04:55:49;;;;;;;;;;;;;;;;;;5047997;28;20025;-77
2022/08/06 04:58:15;;;;;;;;;;;;;;;;;;5046854;28;19944;-78
2022/08/06 05:00:41;;;;;;;;;;;;;;;;;;5019824;28;19964;-77
2022/08/06 05:03:07;;;;;;;;;;;;;;;;;;5044769;28;19948;-77
2022/08/06 05:05:34;;;;;;;;;;;;;;;;;;5039028;28;19975;-78
2022/08/06 05:08:00;;;;;;;;;;;;;;;;;;5042159;28;19968;-77
2022/08/06 05:10:26;;;;;;;;;;;;;;;;;;5051366;28;19952;-78
2022/08/06 05:12:52;;;;;;;;;;;;;;;;;;5046659;28;20345;-77
2022/08/06 05:15:18;;;;;;;;;;;;;;;;;;5027276;28;19960;-78
2022/08/06 05:17:44;;;;;;;;;;;;;;;;;;5046254;28;20401;-79
2022/08/06 05:20:11;;;;;;;;;;;;;;;;;;5041165;28;19987;-77
2022/08/06 05:22:37;;;;;;;;;;;;;;;;;;5042300;28;20058;-79
2022/08/06 05:25:03;;;;;;;;;;;;;;;;;;5046345;28;19952;-77
2022/08/06 05:27:29;;;;;;;;;;;;;;;;;;5046381;28;19960;-77
2022/08/06 05:29:55;;;;;;;;;;;;;;;;;;5045855;28;19979;-78
2022/08/06 05:32:22;;;;;;;;;;;;;;;;;;5044444;28;19913;-78
2022/08/06 05:34:48;;;;;;;;;;;;;;;;;;5047676;28;19964;-79
2022/08/06 05:37:14;;;;;;;;;;;;;;;;;;5047978;28;20609;-80
2022/08/06 05:39:40;;;;;;;;;;;;;;;;;;5048435;28;20383;-79
2022/08/06 05:42:07;;;;;;;;;;;;;;;;;;5046839;28;19953;-79
2022/08/06 05:44:33;;;;;;;;;;;;;;;;;;5044522;28;19956;-79
2022/08/06 05:46:59;;;;;;;;;;;;;;;;;;5045185;28;19949;-80
2022/08/06 05:49:25;;;;;;;;;;;;;;;;;;5043530;28;19952;-78
2022/08/06 05:51:51;;;;;;;;;;;;;;;;;;5045072;28;19917;-78
2022/08/06 05:54:18;;;;;;;;;;;;;;;;;;5045740;28;19952;-79
2022/08/06 05:56:45;;;;;;;;;;;;;;;;;;5046485;28;19967;-79
2022/08/06 05:59:11;;;;;;;;;;;;;;;;;;5041798;28;20007;-78
2022/08/06 06:01:37;;;;;;;;;;;;;;;;;;5044043;28;19952;-79
2022/08/06 06:04:03;;;;;;;;;;;;;;;;;;5044089;28;19991;-79
2022/08/06 06:06:30;;;;;;;;;;;;;;;;;;5046209;28;19967;-80
2022/08/06 06:08:56;;;;;;;;;;;;;;;;;;5046979;28;19963;-79
2022/08/06 06:11:22;;;;;;;;;;;;;;;;;;5044326;28;19952;-79
2022/08/06 06:13:48;;;;;;;;;;;;;;;;;;5046731;28;19952;-77
2022/08/06 06:16:16;;;;;;;;;;;;;;;;;;5045408;28;19963;-78
2022/08/06 06:18:42;;;;;;;;;;;;;;;;;;5043518;28;20349;-79
2022/08/06 06:21:08;;;;;;;;;;;;;;;;;;5037299;28;19952;-77
2022/08/06 06:23:34;;;;;;;;;;;;;;;;;;5028747;28;20595;-78
2022/08/06 06:26:02;;;;;;;;;;;;;;;;;;5038765;28;20235;-78
2022/08/06 06:28:29;;;;;;;;;;;;;;;;;;5043210;28;19949;-78
2022/08/06 06:30:55;;;;;;;;;;;;;;;;;;5035733;28;19956;-78
2022/08/06 06:33:21;;;;;;;;;;;;;;;;;;5040804;28;19925;-77
2022/08/06 06:35:47;;;;;;;;;;;;;;;;;;5044718;28;19964;-78
2022/08/06 06:38:13;;;;;;;;;;;;;;;;;;5043569;28;20369;-78
2022/08/06 06:40:41;;;;;;;;;;;;;;;;;;5047672;28;19966;-79
2022/08/06 06:43:08;;;;;;;;;;;;;;;;;;5045252;28;19996;-79
2022/08/06 06:45:34;;;;;;;;;;;;;;;;;;5045762;28;19936;-78
2022/08/06 06:48:00;;;;;;;;;;;;;;;;;;5045430;28;19955;-77
2022/08/06 06:50:27;;;;;;;;;;;;;;;;;;5045506;28;19960;-79
2022/08/06 06:52:53;;;;;;;;;;;;;;;;;;5045059;28;20464;-78
2022/08/06 06:55:19;;;;;;;;;;;;;;;;;;5045493;28;19956;-78
2022/08/06 06:57:45;;;;;;;;;;;;;;;;;;5043197;28;19959;-78
2022/08/06 07:00:11;;;;;;;;;;;;;;;;;;5044592;28;19960;-78
2022/08/06 07:02:40;;;;;;;;;;;;;;;;;;5046701;28;20384;-78
2022/08/06 07:05:06;;;;;;;;;;;;;;;;;;5036110;28;20328;-78
2022/08/06 07:07:32;;;;;;;;;;;;;;;;;;5041639;28;19952;-78
2022/08/06 07:09:58;;;;;;;;;;;;;;;;;;5038043;28;19956;-77
2022/08/06 07:12:25;;;;;;;;;;;;;;;;;;5040110;28;20361;-80
2022/08/06 07:14:53;;;;;;;;;;;;;;;;;;5025017;28;20015;-79
2022/08/06 07:17:20;;;;;;;;;;;;;;;;;;5025264;28;20337;-79
2022/08/06 07:19:46;;;;;;;;;;;;;;;;;;5045749;28;19952;-78
2022/08/06 07:22:12;;;;;;;;;;;;;;;;;;5041964;28;19968;-77
2022/08/06 07:24:38;;;;;;;;;;;;;;;;;;5045374;28;20040;-78
2022/08/06 07:27:05;;;;;;;;;;;;;;;;;;5043712;28;19921;-78
2022/08/06 07:29:31;;;;;;;;;;;;;;;;;;5045064;28;19959;-78
2022/08/06 07:32:06;;;;;;;;;;;;;;;;;;5028777;28;19920;-78
2022/08/06 07:34:32;;;;;;;;;;;;;;;;;;5042514;28;20384;-78
2022/08/06 07:36:58;;;;;;;;;;;;;;;;;;5024992;28;19952;-78
2022/08/06 07:39:25;;;;;;;;;;;;;;;;;;5027733;28;19973;-78
2022/08/06 07:41:51;;;;;;;;;;;;;;;;;;5032561;28;19940;-81
2022/08/06 07:44:17;;;;;;;;;;;;;;;;;;5040510;28;21394;-78
2022/08/06 07:46:44;;;;;;;;;;;;;;;;;;5031285;28;20381;-78
2022/08/06 07:49:11;;;;;;;;;;;;;;;;;;5030663;28;19964;-78
2022/08/06 07:51:37;;;;;;;;;;;;;;;;;;5043279;28;19945;-78
2022/08/06 07:54:03;;;;;;;;;;;;;;;;;;5043415;28;19948;-78
2022/08/06 07:56:29;;;;;;;;;;;;;;;;;;5046178;28;19965;-79
2022/08/06 07:58:55;;;;;;;;;;;;;;;;;;5041118;28;20403;-77
2022/08/06 08:01:22;;;;;;;;;;;;;;;;;;5040340;28;19956;-81
2022/08/06 08:06:33;;;;;;;;;;;;;;;;;;5038372;28;21503;-81
2022/08/06 08:08:59;;;;;;;;;;;;;;;;;;5042161;28;19976;-79
2022/08/06 08:11:25;;;;;;;;;;;;;;;;;;5041478;28;19960;-78
2022/08/06 08:13:51;;;;;;;;;;;;;;;;;;5042891;28;19941;-79
2022/08/06 08:16:18;;;;;;;;;;;;;;;;;;5044548;28;19972;-78
2022/08/06 08:18:44;;;;;;;;;;;;;;;;;;5036754;28;19952;-78
2022/08/06 08:21:10;;;;;;;;;;;;;;;;;;5044657;28;20000;-77
2022/08/06 08:23:36;;;;;;;;;;;;;;;;;;5042911;28;19963;-80
2022/08/06 08:26:02;;;;;;;;;;;;;;;;;;5041817;28;19944;-78
2022/08/06 08:28:29;;;;;;;;;;;;;;;;;;5042619;28;19948;-78
2022/08/06 08:31:01;;;;;;;;;;;;;;;;;;5046517;28;20022;-80
2022/08/06 08:33:27;;;;;;;;;;;;;;;;;;5045654;28;20029;-79
2022/08/06 08:35:53;;;;;;;;;;;;;;;;;;5049971;28;20738;-79
2022/08/06 08:38:19;;;;;;;;;;;;;;;;;;5050957;28;19959;-78
2022/08/06 08:40:45;;;;;;;;;;;;;;;;;;5043269;28;19986;-79
2022/08/06 08:43:12;;;;;;;;;;;;;;;;;;5046952;28;19952;-79
2022/08/06 08:45:38;;;;;;;;;;;;;;;;;;5045607;28;19960;-79
2022/08/06 08:48:04;;;;;;;;;;;;;;;;;;5030068;28;19952;-79
2022/08/06 08:50:30;;;;;;;;;;;;;;;;;;5047166;28;19948;-80
2022/08/06 08:52:57;;;;;;;;;;;;;;;;;;5045143;28;19982;-81
2022/08/06 08:55:23;;;;;;;;;;;;;;;;;;5046346;28;19960;-80
2022/08/06 08:57:51;;;;;;;;;;;;;;;;;;5044597;28;19920;-79
2022/08/06 09:00:17;;;;;;;;;;;;;;;;;;5041952;28;20449;-79
2022/08/06 09:02:44;;;;;;;;;;;;;;;;;;5045703;28;19948;-80
2022/08/06 09:05:10;;;;;;;;;;;;;;;;;;5044357;28;19963;-79
2022/08/06 09:07:36;;;;;;;;;;;;;;;;;;5046457;28;19948;-80
2022/08/06 09:10:03;;;;;;;;;;;;;;;;;;5043669;28;20344;-77
2022/08/06 09:12:29;;;;;;;;;;;;;;;;;;5045577;28;19980;-76
2022/08/06 09:14:55;;;;;;;;;;;;;;;;;;5040531;28;19978;-76
2022/08/06 09:17:21;;;;;;;;;;;;;;;;;;5043802;28;19963;-76
2022/08/06 09:19:49;;;;;;;;;;;;;;;;;;5043595;28;19990;-75
2022/08/06 09:22:15;;;;;;;;;;;;;;;;;;5008888;28;19961;-77
2022/08/06 09:24:41;;;;;;;;;;;;;;;;;;5044445;28;19996;-75
2022/08/06 09:27:07;;;;;;;;;;;;;;;;;;5041129;28;19925;-76
2022/08/06 09:29:34;;;;;;;;;;;;;;;;;;5044865;28;19960;-76
2022/08/06 09:32:00;;;;;;;;;;;;;;;;;;5026598;28;20458;-76
2022/08/06 09:34:26;;;;;;;;;;;;;;;;;;5026665;28;19967;-77
2022/08/06 09:36:54;;;;;;;;;;;;;;;;;;5043917;28;19956;-77
2022/08/06 09:39:20;;;;;;;;;;;;;;;;;;5037422;28;20792;-76
2022/08/06 09:41:46;;;;;;;;;;;;;;;;;;5039620;28;19956;-78
2022/08/06 09:44:13;;;;;;;;;;;;;;;;;;5040711;28;19921;-78
2022/08/06 09:46:39;;;;;;;;;;;;;;;;;;5041010;28;19928;-78
2022/08/06 09:49:06;;;;;;;;;;;;;;;;;;5040226;28;19912;-78
2022/08/06 09:51:34;;;;;;;;;;;;;;;;;;5042434;28;20466;-78
2022/08/06 09:54:00;;;;;;;;;;;;;;;;;;5040226;28;19949;-79
2022/08/06 09:56:27;;;;;;;;;;;;;;;;;;5042428;28;19995;-78
2022/08/06 09:58:53;;;;;;;;;;;;;;;;;;5040093;28;19956;-78
2022/08/06 10:01:20;;;;;;;;;;;;;;;;;;5041639;28;20681;-78
2022/08/06 10:03:46;;;;;;;;;;;;;;;;;;5040960;28;19971;-78
2022/08/06 10:06:12;;;;;;;;;;;;;;;;;;5041214;28;19963;-78
2022/08/06 10:08:38;;;;;;;;;;;;;;;;;;5044518;28;19983;-76
2022/08/06 10:11:05;;;;;;;;;;;;;;;;;;5040755;28;20017;-81
2022/08/06 10:13:31;;;;;;;;;;;;;;;;;;5042328;28;19917;-78
2022/08/06 10:15:57;;;;;;;;;;;;;;;;;;5038470;28;20467;-79
2022/08/06 10:18:24;;;;;;;;;;;;;;;;;;5041128;28;19978;-78
2022/08/06 10:20:50;;;;;;;;;;;;;;;;;;5041306;28;19925;-79
2022/08/06 10:23:17;;;;;;;;;;;;;;;;;;5041909;28;19967;-79
2022/08/06 10:25:43;;;;;;;;;;;;;;;;;;5039946;28;20531;-79
2022/08/06 10:28:09;;;;;;;;;;;;;;;;;;5041539;28;19960;-78
2022/08/06 10:30:36;;;;;;;;;;;;;;;;;;5042256;28;20355;-78
2022/08/06 10:33:02;;;;;;;;;;;;;;;;;;5023326;28;19967;-77
2022/08/06 10:35:28;;;;;;;;;;;;;;;;;;5042217;28;20393;-76
2022/08/06 10:37:56;;;;;;;;;;;;;;;;;;5041576;28;19963;-77
2022/08/06 10:40:22;;;;;;;;;;;;;;;;;;5041953;28;19979;-76
2022/08/06 10:42:48;;;;;;;;;;;;;;;;;;5041360;28;19974;-76
2022/08/06 10:45:14;;;;;;;;;;;;;;;;;;5024945;28;19917;-77
2022/08/06 10:47:41;;;;;;;;;;;;;;;;;;5042648;28;20333;-77
2022/08/06 10:50:07;;;;;;;;;;;;;;;;;;5042641;28;19987;-76
2022/08/06 10:52:33;;;;;;;;;;;;;;;;;;5041471;28;19955;-76
2022/08/06 10:54:59;;;;;;;;;;;;;;;;;;5042325;28;19963;-76
2022/08/06 10:57:25;;;;;;;;;;;;;;;;;;5041394;28;19972;-77
2022/08/06 10:59:52;;;;;;;;;;;;;;;;;;5039298;28;19997;-77
2022/08/06 11:02:18;;;;;;;;;;;;;;;;;;5041063;28;20384;-77
2022/08/06 11:04:44;;;;;;;;;;;;;;;;;;5039218;28;20087;-76
2022/08/06 11:07:10;;;;;;;;;;;;;;;;;;5040918;28;19948;-76
2022/08/06 11:09:36;;;;;;;;;;;;;;;;;;5041043;28;19972;-76
2022/08/06 11:12:03;;;;;;;;;;;;;;;;;;5041727;28;19962;-76
2022/08/06 11:14:29;;;;;;;;;;;;;;;;;;5041259;28;19921;-77
2022/08/06 11:16:55;;;;;;;;;;;;;;;;;;5039811;28;20376;-76
2022/08/06 11:19:21;;;;;;;;;;;;;;;;;;5040299;28;20385;-77
2022/08/06 11:21:48;;;;;;;;;;;;;;;;;;5038193;28;20018;-77
2022/08/06 11:24:15;;;;;;;;;;;;;;;;;;5041321;28;20553;-77
2022/08/06 11:26:42;;;;;;;;;;;;;;;;;;5024221;28;19979;-84
2022/08/06 11:29:08;;;;;;;;;;;;;;;;;;5041860;28;19959;-82
2022/08/06 11:31:34;;;;;;;;;;;;;;;;;;5038774;28;19967;-81
2022/08/06 11:34:00;;;;;;;;;;;;;;;;;;5038906;28;20328;-81
2022/08/06 11:36:27;;;;;;;;;;;;;;;;;;5040685;28;19928;-81
2022/08/06 11:38:53;;;;;;;;;;;;;;;;;;5039634;28;19963;-83
2022/08/06 11:41:21;;;;;;;;;;;;;;;;;;5042006;28;19971;-82
2022/08/06 11:43:47;;;;;;;;;;;;;;;;;;5038318;28;19953;-82
2022/08/06 11:46:13;;;;;;;;;;;;;;;;;;5041521;28;20353;-83
2022/08/06 11:48:40;;;;;;;;;;;;;;;;;;5035983;28;20008;-83
2022/08/06 11:51:06;;;;;;;;;;;;;;;;;;5039905;28;20290;-83
2022/08/06 11:53:32;;;;;;;;;;;;;;;;;;5041159;28;19956;-84
2022/08/06 11:55:58;;;;;;;;;;;;;;;;;;5022053;28;20358;-85
2022/08/06 11:58:24;;;;;;;;;;;;;;;;;;5022504;28;19988;-86
2022/08/06 12:00:51;;;;;;;;;;;;;;;;;;5039341;28;19949;-84
2022/08/06 12:03:17;;;;;;;;;;;;;;;;;;5040982;28;20349;-83
2022/08/06 12:05:44;;;;;;;;;;;;;;;;;;5042905;28;19952;-86
2022/08/06 12:08:10;;;;;;;;;;;;;;;;;;5045313;28;19963;-85
2022/08/06 12:10:36;;;;;;;;;;;;;;;;;;5044443;28;19963;-84
2022/08/06 12:13:02;;;;;;;;;;;;;;;;;;5044843;28;19948;-85
2022/08/06 12:15:30;;;;;;;;;;;;;;;;;;5044256;28;19961;-84
2022/08/06 12:17:56;;;;;;;;;;;;;;;;;;5024299;28;19960;-85
2022/08/06 12:20:23;;;;;;;;;;;;;;;;;;5044793;28;20001;-86
2022/08/06 12:22:49;;;;;;;;;;;;;;;;;;5027216;28;20392;-86
2022/08/06 12:25:15;;;;;;;;;;;;;;;;;;5028130;28;19948;-85
2022/08/06 12:27:41;;;;;;;;;;;;;;;;;;5043502;28;19960;-88
2022/08/06 12:30:08;;;;;;;;;;;;;;;;;;5042770;28;19960;-85
2022/08/06 12:32:34;;;;;;;;;;;;;;;;;;5041654;28;19952;-78
2022/08/06 12:35:00;;;;;;;;;;;;;;;;;;5026333;28;19987;-84
2022/08/06 12:37:29;;;;;;;;;;;;;;;;;;5046449;28;20022;-84
2022/08/06 12:42:46;;;;;;;;;;;;;;;;;;5071425;28;19921;-84
2022/08/06 12:45:12;;;;;;;;;;;;;;;;;;5070580;28;19913;-85
2022/08/06 12:47:39;;;;;;;;;;;;;;;;;;5050732;28;19924;-85
2022/08/06 12:50:05;;;;;;;;;;;;;;;;;;5071574;28;19921;-84
2022/08/06 12:52:31;;;;;;;;;;;;;;;;;;5067297;28;19925;-84
2022/08/06 12:54:57;;;;;;;;;;;;;;;;;;5065579;28;19936;-86
2022/08/06 12:57:23;;;;;;;;;;;;;;;;;;5059409;28;19917;-84
2022/08/06 12:59:50;;;;;;;;;;;;;;;;;;5061885;28;19921;-84
2022/08/06 13:02:16;;;;;;;;;;;;;;;;;;5067129;28;19921;-82
2022/08/06 13:04:42;;;;;;;;;;;;;;;;;;5070617;28;19919;-84
2022/08/06 13:07:08;;;;;;;;;;;;;;;;;;5069847;28;19931;-87
2022/08/06 13:09:34;;;;;;;;;;;;;;;;;;5067770;28;19916;-80
2022/08/06 13:12:00;;;;;;;;;;;;;;;;;;5066225;28;19917;-81
2022/08/06 13:14:27;;;;;;;;;;;;;;;;;;5067801;28;19935;-79
2022/08/06 13:16:53;;;;;;;;;;;;;;;;;;5066295;28;19932;-82
2022/08/06 13:19:20;;;;;;;;;;;;;;;;;;5052709;28;19917;-80
2022/08/06 13:21:46;;;;;;;;;;;;;;;;;;5071140;28;19917;-84
2022/08/06 13:24:12;;;;;;;;;;;;;;;;;;5068824;28;19928;-84
2022/08/06 13:26:38;;;;;;;;;;;;;;;;;;5068080;28;19991;-82
2022/08/06 13:29:06;;;;;;;;;;;;;;;;;;5064786;28;19956;-82
2022/08/06 13:31:32;;;;;;;;;;;;;;;;;;5037218;28;19912;-81
2022/08/06 13:34:01;;;;;;;;;;;;;;;;;;5044192;28;19981;-83
2022/08/06 13:36:27;;;;;;;;;;;;;;;;;;5071408;28;20096;-84
2022/08/06 13:38:53;;;;;;;;;;;;;;;;;;5068413;28;19908;-83
2022/08/06 13:41:19;;;;;;;;;;;;;;;;;;5072761;28;19913;-82
2022/08/06 13:43:46;;;;;;;;;;;;;;;;;;5059988;28;19917;-82
2022/08/06 13:46:12;;;;;;;;;;;;;;;;;;5064112;28;19904;-83
2022/08/06 13:48:38;;;;;;;;;;;;;;;;;;5070360;28;19917;-82
2022/08/06 13:51:04;;;;;;;;;;;;;;;;;;5070173;28;19913;-87
2022/08/06 13:53:30;;;;;;;;;;;;;;;;;;5068214;28;19936;-84
2022/08/06 13:55:56;;;;;;;;;;;;;;;;;;5065696;28;19943;-85
2022/08/06 13:58:23;;;;;;;;;;;;;;;;;;5064251;28;19923;-86
2022/08/06 14:00:49;;;;;;;;;;;;;;;;;;5065301;28;19916;-85
2022/08/06 14:03:15;;;;;;;;;;;;;;;;;;5052961;28;19924;-86
2022/08/06 14:05:41;;;;;;;;;;;;;;;;;;5047851;28;19937;-83
2022/08/06 14:08:07;;;;;;;;;;;;;;;;;;5068771;28;19925;-84
2022/08/06 14:10:34;;;;;;;;;;;;;;;;;;5069408;28;20248;-81
2022/08/06 14:13:15;;;;;;;;;;;;;;;;;;5068021;28;21268;-81
2022/08/06 14:15:42;;;;;;;;;;;;;;;;;;5052887;28;19975;-81
2022/08/06 14:18:08;;;;;;;;;;;;;;;;;;5067920;28;19974;-81
2022/08/06 14:20:35;;;;;;;;;;;;;;;;;;5069405;28;19905;-81
2022/08/06 14:23:01;;;;;;;;;;;;;;;;;;5064443;28;20303;-80
2022/08/06 14:25:27;;;;;;;;;;;;;;;;;;5053268;28;20245;-82
2022/08/06 14:27:54;;;;;;;;;;;;;;;;;;5068422;28;19913;-80
2022/08/06 14:30:20;;;;;;;;;;;;;;;;;;5070860;28;19913;-80
2022/08/06 14:32:47;;;;;;;;;;;;;;;;;;5062695;28;19917;-83
2022/08/06 14:35:13;;;;;;;;;;;;;;;;;;5064592;28;19925;-85
2022/08/06 14:37:42;;;;;;;;;;;;;;;;;;5061033;28;19921;-85
2022/08/06 14:40:08;;;;;;;;;;;;;;;;;;5057259;28;19913;-84
2022/08/06 14:45:19;;;;;;;;;;;;;;;;;;5058853;28;19921;-85
2022/08/06 14:47:45;;;;;;;;;;;;;;;;;;5056498;28;19934;-85
2022/08/06 14:50:12;;;;;;;;;;;;;;;;;;5048709;28;19971;-85
2022/08/06 14:52:40;;;;;;;;;;;;;;;;;;5055628;28;19921;-87
2022/08/06 14:55:06;;;;;;;;;;;;;;;;;;5047206;28;19916;-87
2022/08/06 14:57:33;;;;;;;;;;;;;;;;;;5060164;28;19948;-84
2022/08/06 14:59:59;;;;;;;;;;;;;;;;;;5055609;28;20002;-78
2022/08/06 15:02:25;;;;;;;;;;;;;;;;;;5056744;28;19921;-78
2022/08/06 15:04:51;;;;;;;;;;;;;;;;;;5055070;28;19921;-81
2022/08/06 15:07:18;;;;;;;;;;;;;;;;;;5055408;28;20403;-80
2022/08/06 15:09:44;;;;;;;;;;;;;;;;;;5054934;28;19955;-80
2022/08/06 15:12:10;;;;;;;;;;;;;;;;;;5055879;28;19923;-81
2022/08/06 15:14:36;;;;;;;;;;;;;;;;;;5054902;28;19927;-80
2022/08/06 15:17:03;;;;;;;;;;;;;;;;;;5036970;28;19929;-81
2022/08/06 15:19:29;;;;;;;;;;;;;;;;;;5054047;28;19917;-81
2022/08/06 15:21:55;;;;;;;;;;;;;;;;;;5054112;28;19921;-80
2022/08/06 15:24:22;;;;;;;;;;;;;;;;;;5052052;28;19928;-80
2022/08/06 15:26:48;;;;;;;;;;;;;;;;;;5052522;28;19913;-80
2022/08/06 15:29:14;;;;;;;;;;;;;;;;;;5055194;28;19917;-80
2022/08/06 15:31:40;;;;;;;;;;;;;;;;;;5053427;28;19921;-80
2022/08/06 15:34:07;;;;;;;;;;;;;;;;;;5051312;28;19951;-80
2022/08/06 15:36:33;;;;;;;;;;;;;;;;;;5054929;28;20409;-79
2022/08/06 15:38:59;;;;;;;;;;;;;;;;;;5052272;28;20448;-79
2022/08/06 15:41:27;;;;;;;;;;;;;;;;;;5036276;28;19913;-78
2022/08/06 15:43:53;;;;;;;;;;;;;;;;;;5053007;28;19921;-79
2022/08/06 15:46:19;;;;;;;;;;;;;;;;;;5034234;28;19917;-79
2022/08/06 15:48:46;;;;;;;;;;;;;;;;;;5039110;28;20369;-80
2022/08/06 15:51:12;;;;;;;;;;;;;;;;;;5040326;28;19960;-80
2022/08/06 15:53:38;;;;;;;;;;;;;;;;;;5037773;28;19971;-81
2022/08/06 15:56:04;;;;;;;;;;;;;;;;;;5041196;28;19967;-80
2022/08/06 15:58:30;;;;;;;;;;;;;;;;;;5042199;28;20304;-79
2022/08/06 16:00:56;;;;;;;;;;;;;;;;;;5040172;28;19956;-80
2022/08/06 16:03:23;;;;;;;;;;;;;;;;;;5041326;28;19921;-80
2022/08/06 16:05:50;;;;;;;;;;;;;;;;;;5005417;28;19917;-79
2022/08/06 16:08:16;;;;;;;;;;;;;;;;;;5041300;28;19971;-79
2022/08/06 16:10:42;;;;;;;;;;;;;;;;;;5039027;28;20411;-79
2022/08/06 16:13:09;;;;;;;;;;;;;;;;;;5040325;28;19964;-79
2022/08/06 16:15:35;;;;;;;;;;;;;;;;;;5038500;28;19967;-79
2022/08/06 16:18:02;;;;;;;;;;;;;;;;;;5037861;28;19960;-79
2022/08/06 16:20:28;;;;;;;;;;;;;;;;;;5040344;28;20010;-79
2022/08/06 16:22:54;;;;;;;;;;;;;;;;;;5038342;28;19967;-79
2022/08/06 16:25:20;;;;;;;;;;;;;;;;;;5023532;28;20014;-80
2022/08/06 16:27:47;;;;;;;;;;;;;;;;;;5040710;28;19976;-80
2022/08/06 16:30:13;;;;;;;;;;;;;;;;;;5041944;28;19956;-78
2022/08/06 16:32:39;;;;;;;;;;;;;;;;;;5038783;28;19958;-80
2022/08/06 16:35:06;;;;;;;;;;;;;;;;;;5021670;28;19936;-79
2022/08/06 16:37:32;;;;;;;;;;;;;;;;;;5041180;28;20369;-78
2022/08/06 16:39:58;;;;;;;;;;;;;;;;;;5038844;28;19963;-80
2022/08/06 16:42:24;;;;;;;;;;;;;;;;;;5022330;28;20601;-79
2022/08/06 16:44:50;;;;;;;;;;;;;;;;;;5038503;28;19968;-79
2022/08/06 16:47:17;;;;;;;;;;;;;;;;;;5021272;28;20377;-80
2022/08/06 16:49:43;;;;;;;;;;;;;;;;;;5039201;28;19952;-81
2022/08/06 16:52:09;;;;;;;;;;;;;;;;;;5042983;28;20531;-80
2022/08/06 16:54:35;;;;;;;;;;;;;;;;;;5024961;28;19967;-78
2022/08/06 16:57:01;;;;;;;;;;;;;;;;;;5043980;28;19963;-80